Time;durP1;ratioP1;P1;durP2;ratioP2;P2;SDS_P1;SDS_P2;PMS_P1;PMS_P2;Temp;Humidity;BMP_temperature;BMP_pressure;BME280_temperature;BME280_humidity;BME280_pressure;Samples;Min_cycle;Max_cycle;Signal;HPM_P1;HPM_P2
2023/09/03 00:03:16;;;;;;;4.43;1.85;;;;;;;;;;10407517;28;20034;-47
2023/09/03 00:08:17;;;;;;;5.78;2.10;;;;;;;;;;10409353;28;20033;-46
2023/09/03 00:13:18;;;;;;;3.55;1.73;;;;;;;;;;10400129;28;20036;-47
2023/09/03 00:18:18;;;;;;;3.55;2.22;;;;;;;;;;10403971;28;20029;-48
2023/09/03 00:23:19;;;;;;;3.33;2.20;;;;;;;;;;10408724;28;20026;-47
2023/09/03 00:28:20;;;;;;;5.78;2.38;;;;;;;;;;10406800;28;20033;-46
2023/09/03 00:33:20;;;;;;;2.90;2.08;;;;;;;;;;10401793;28;20091;-47
2023/09/03 00:38:21;;;;;;;3.03;1.88;;;;;;;;;;10385292;28;20034;-46
2023/09/03 00:43:21;;;;;;;4.00;2.03;;;;;;;;;;10405439;28;20045;-47
2023/09/03 00:48:26;;;;;;;4.38;2.00;;;;;;;;;;10402178;28;20057;-47
2023/09/03 00:53:29;;;;;;;3.15;2.05;;;;;;;;;;10410479;28;20443;-46
2023/09/03 00:58:30;;;;;;;3.22;1.80;;;;;;;;;;10402354;28;20034;-47
2023/09/03 01:03:30;;;;;;;2.60;1.90;;;;;;;;;;10404801;28;20040;-47
2023/09/03 01:08:31;;;;;;;3.53;2.28;;;;;;;;;;10409161;28;20037;-47
2023/09/03 01:13:38;;;;;;;1.80;1.70;;;;;;;;;;10405541;28;20489;-47
2023/09/03 01:18:40;;;;;;;2.47;2.20;;;;;;;;;;10395039;28;20040;-47
2023/09/03 01:24:19;;;;;;;3.38;2.00;;;;;;;;;;10373660;28;20508;-47
2023/09/03 01:29:21;;;;;;;3.08;2.10;;;;;;;;;;10397965;28;20061;-47
2023/09/03 01:34:23;;;;;;;3.42;1.75;;;;;;;;;;10407823;28;20064;-47
2023/09/03 01:39:23;;;;;;;3.38;2.40;;;;;;;;;;10397668;28;20048;-47
2023/09/03 01:44:24;;;;;;;2.45;1.90;;;;;;;;;;10391000;28;20496;-47
2023/09/03 01:49:52;;;;;;;3.80;2.20;;;;;;;;;;10407924;28;20056;-47
2023/09/03 01:54:57;;;;;;;2.35;1.80;;;;;;;;;;10405277;28;20057;-46
2023/09/03 02:00:11;;;;;;;2.80;1.88;;;;;;;;;;10398413;28;20485;-47
2023/09/03 02:05:13;;;;;;;4.50;2.00;;;;;;;;;;10393031;28;20404;-48
2023/09/03 02:10:13;;;;;;;2.55;1.95;;;;;;;;;;10396424;28;20033;-47
2023/09/03 02:15:14;;;;;;;2.33;1.92;;;;;;;;;;10407018;28;20481;-47
2023/09/03 02:20:16;;;;;;;2.50;1.90;;;;;;;;;;10397681;28;20064;-47
2023/09/03 02:25:16;;;;;;;2.50;1.83;;;;;;;;;;10398341;28;20087;-46
2023/09/03 02:30:17;;;;;;;2.40;1.95;;;;;;;;;;10407209;28;20079;-47
2023/09/03 02:35:17;;;;;;;2.30;1.70;;;;;;;;;;10411491;28;20037;-50
2023/09/03 02:40:19;;;;;;;2.58;1.88;;;;;;;;;;10414598;28;20034;-46
2023/09/03 02:45:19;;;;;;;2.83;1.95;;;;;;;;;;10389095;28;20056;-48
2023/09/03 02:50:20;;;;;;;1.98;1.63;;;;;;;;;;10414315;28;20377;-47
2023/09/03 02:55:20;;;;;;;3.03;1.90;;;;;;;;;;10410656;28;20030;-47
2023/09/03 03:00:23;;;;;;;2.33;1.95;;;;;;;;;;10413066;28;20087;-47
2023/09/03 03:05:23;;;;;;;5.97;2.08;;;;;;;;;;10412113;28;20041;-46
2023/09/03 03:10:24;;;;;;;4.55;1.83;;;;;;;;;;10402439;28;20485;-46
2023/09/03 03:15:24;;;;;;;4.10;2.08;;;;;;;;;;10410406;28;20583;-47
2023/09/03 03:20:25;;;;;;;1.92;1.75;;;;;;;;;;10411967;28;20488;-46
2023/09/03 03:25:26;;;;;;;3.08;1.90;;;;;;;;;;10410821;28;20511;-46
2023/09/03 03:30:26;;;;;;;2.75;2.00;;;;;;;;;;10413293;28;20021;-46
2023/09/03 03:35:27;;;;;;;4.00;2.08;;;;;;;;;;10406517;28;20386;-47
2023/09/03 03:40:28;;;;;;;2.88;2.38;;;;;;;;;;10402794;28;20033;-47
2023/09/03 03:45:28;;;;;;;1.90;1.55;;;;;;;;;;10410322;28;20038;-47
2023/09/03 03:50:30;;;;;;;3.08;1.90;;;;;;;;;;10412938;28;20034;-47
2023/09/03 03:55:31;;;;;;;4.05;1.98;;;;;;;;;;10411513;28;20396;-47
2023/09/03 04:00:32;;;;;;;4.10;2.17;;;;;;;;;;10405611;28;20040;-46
2023/09/03 04:05:32;;;;;;;2.30;2.08;;;;;;;;;;10404314;28;20390;-47
2023/09/03 04:10:33;;;;;;;2.80;1.80;;;;;;;;;;10393488;28;20034;-47
2023/09/03 04:15:37;;;;;;;2.20;1.75;;;;;;;;;;10409398;28;20044;-47
2023/09/03 04:20:38;;;;;;;2.15;1.95;;;;;;;;;;10411170;28;20029;-56
2023/09/03 04:25:38;;;;;;;2.70;2.00;;;;;;;;;;10391374;28;20536;-57
2023/09/03 04:30:39;;;;;;;2.78;1.95;;;;;;;;;;10406853;28;20468;-54
2023/09/03 04:35:40;;;;;;;2.05;1.85;;;;;;;;;;10410580;28;20079;-53
2023/09/03 04:40:44;;;;;;;2.75;2.00;;;;;;;;;;10406685;28;20029;-50
2023/09/03 04:45:49;;;;;;;2.50;1.92;;;;;;;;;;10410222;28;20507;-49
2023/09/03 04:50:50;;;;;;;5.50;2.17;;;;;;;;;;10409959;28;20029;-49
2023/09/03 04:55:50;;;;;;;3.08;2.05;;;;;;;;;;10398443;28;20041;-48
2023/09/03 05:00:51;;;;;;;2.22;1.80;;;;;;;;;;10409584;28;20033;-46
2023/09/03 05:05:51;;;;;;;2.13;1.80;;;;;;;;;;10405577;28;20044;-47
2023/09/03 05:10:52;;;;;;;1.85;1.58;;;;;;;;;;10394479;28;20373;-47
2023/09/03 05:15:53;;;;;;;1.90;1.80;;;;;;;;;;10396555;28;20036;-47
2023/09/03 05:20:54;;;;;;;2.13;1.90;;;;;;;;;;10408834;28;20033;-47
2023/09/03 05:25:54;;;;;;;2.47;2.10;;;;;;;;;;10380706;28;20041;-46
2023/09/03 05:30:55;;;;;;;2.47;1.70;;;;;;;;;;10405706;28;20040;-46
2023/09/03 05:35:56;;;;;;;4.35;1.88;;;;;;;;;;10396431;28;20384;-47
2023/09/03 05:40:59;;;;;;;1.70;1.60;;;;;;;;;;10405101;28;20089;-47
2023/09/03 05:46:00;;;;;;;2.83;2.00;;;;;;;;;;10405921;28;20136;-47
2023/09/03 05:51:06;;;;;;;2.67;2.15;;;;;;;;;;10408148;28;20052;-48
2023/09/03 05:56:09;;;;;;;1.85;1.67;;;;;;;;;;10406659;28;20030;-47
2023/09/03 06:01:11;;;;;;;2.30;2.10;;;;;;;;;;10406912;28;20029;-47
2023/09/03 06:06:13;;;;;;;2.47;1.98;;;;;;;;;;10394787;28;20087;-48
2023/09/03 06:11:14;;;;;;;2.42;1.92;;;;;;;;;;10404335;28;20045;-47
2023/09/03 06:16:14;;;;;;;3.25;2.60;;;;;;;;;;10394626;28;20049;-47
2023/09/03 06:21:15;;;;;;;2.15;1.95;;;;;;;;;;10405722;28;20079;-46
2023/09/03 06:26:15;;;;;;;3.05;1.92;;;;;;;;;;10403628;28;20040;-46
2023/09/03 06:31:16;;;;;;;1.85;1.73;;;;;;;;;;10406272;28;20033;-47
2023/09/03 06:36:16;;;;;;;3.55;2.20;;;;;;;;;;10402376;28;20026;-47
2023/09/03 06:41:17;;;;;;;3.55;1.80;;;;;;;;;;10389910;28;20041;-47
2023/09/03 06:46:18;;;;;;;2.38;1.90;;;;;;;;;;10398875;28;20088;-47
2023/09/03 06:51:18;;;;;;;4.35;2.05;;;;;;;;;;10389978;28;20389;-47
2023/09/03 06:56:19;;;;;;;2.97;2.33;;;;;;;;;;10393798;28;20435;-47
2023/09/03 07:01:19;;;;;;;3.88;2.15;;;;;;;;;;10400211;28;20034;-46
2023/09/03 07:06:20;;;;;;;3.55;2.20;;;;;;;;;;10405553;28;20042;-47
2023/09/03 07:11:21;;;;;;;2.40;2.15;;;;;;;;;;10389465;28;20081;-47
2023/09/03 07:16:21;;;;;;;7.45;3.20;;;;;;;;;;10405168;28;20033;-47
2023/09/03 07:21:22;;;;;;;5.60;2.40;;;;;;;;;;10397341;28;20029;-49
2023/09/03 07:26:22;;;;;;;4.20;2.58;;;;;;;;;;10400689;28;20034;-46
2023/09/03 07:31:23;;;;;;;3.03;2.63;;;;;;;;;;10407847;28;20034;-46
2023/09/03 07:36:23;;;;;;;5.88;3.05;;;;;;;;;;10412224;28;20029;-46
2023/09/03 07:41:24;;;;;;;5.22;3.33;;;;;;;;;;10412343;28;20018;-47
2023/09/03 07:46:26;;;;;;;7.47;3.88;;;;;;;;;;10412508;28;20099;-46
2023/09/03 07:51:26;;;;;;;12.60;3.95;;;;;;;;;;10411255;28;20117;-46
2023/09/03 07:56:27;;;;;;;5.45;3.67;;;;;;;;;;10406324;28;20029;-46
2023/09/03 08:01:28;;;;;;;9.07;4.18;;;;;;;;;;10411204;28;20040;-46
2023/09/03 08:06:28;;;;;;;7.13;3.75;;;;;;;;;;10413123;28;20629;-46
2023/09/03 08:11:29;;;;;;;6.65;3.40;;;;;;;;;;10412670;28;20326;-46
2023/09/03 08:16:29;;;;;;;5.07;3.30;;;;;;;;;;10412545;28;20523;-49
2023/09/03 08:21:30;;;;;;;7.82;3.70;;;;;;;;;;10412270;28;20484;-46
2023/09/03 08:26:30;;;;;;;9.73;3.60;;;;;;;;;;10412181;28;20469;-46
2023/09/03 08:31:31;;;;;;;8.45;3.92;;;;;;;;;;10411551;28;20044;-47
2023/09/03 08:36:32;;;;;;;5.78;3.95;;;;;;;;;;10411850;28;20484;-47
2023/09/03 08:41:35;;;;;;;7.03;3.45;;;;;;;;;;10411599;28;20048;-46
2023/09/03 08:46:38;;;;;;;4.55;3.63;;;;;;;;;;10411637;28;20503;-48
2023/09/03 08:51:39;;;;;;;4.47;3.70;;;;;;;;;;10411620;28;20025;-46
2023/09/03 08:56:40;;;;;;;6.30;4.00;;;;;;;;;;10410237;28;20388;-47
2023/09/03 09:01:41;;;;;;;8.18;3.42;;;;;;;;;;10410939;28;20022;-46
2023/09/03 09:06:43;;;;;;;4.35;3.47;;;;;;;;;;10411085;28;20397;-46
2023/09/03 09:11:58;;;;;;;6.05;3.25;;;;;;;;;;10409278;28;20079;-47
2023/09/03 09:16:59;;;;;;;4.90;3.22;;;;;;;;;;10409311;28;20021;-46
2023/09/03 09:21:59;;;;;;;6.32;3.42;;;;;;;;;;10410004;28;20388;-46
2023/09/03 09:27:14;;;;;;;9.00;4.30;;;;;;;;;;10409836;28;20385;-46
2023/09/03 09:32:20;;;;;;;5.75;4.20;;;;;;;;;;10409805;28;20589;-46
2023/09/03 09:37:21;;;;;;;5.03;3.47;;;;;;;;;;10409499;28;20056;-46
2023/09/03 09:42:22;;;;;;;4.75;3.58;;;;;;;;;;10408938;28;20376;-46
2023/09/03 09:47:23;;;;;;;5.60;4.18;;;;;;;;;;10408995;28;20060;-46
2023/09/03 09:52:34;;;;;;;4.53;3.53;;;;;;;;;;10424393;28;20079;-46
2023/09/03 09:57:35;;;;;;;6.55;3.47;;;;;;;;;;10409101;28;20036;-50
2023/09/03 10:02:38;;;;;;;7.72;4.03;;;;;;;;;;10408753;28;20033;-47
2023/09/03 10:07:40;;;;;;;5.82;3.88;;;;;;;;;;10408573;28;20473;-47
2023/09/03 10:12:41;;;;;;;5.78;3.88;;;;;;;;;;10407479;28;20025;-46
2023/09/03 10:17:47;;;;;;;7.20;4.03;;;;;;;;;;10408617;28;20025;-46
2023/09/03 10:22:51;;;;;;;5.68;4.43;;;;;;;;;;10408720;28;20036;-47
2023/09/03 10:28:00;;;;;;;6.80;4.10;;;;;;;;;;10408920;28;20036;-46
2023/09/03 10:33:01;;;;;;;5.85;4.20;;;;;;;;;;10407583;28;20021;-47
2023/09/03 10:38:02;;;;;;;5.22;3.70;;;;;;;;;;10406926;28;20483;-47
2023/09/03 10:43:18;;;;;;;4.50;3.83;;;;;;;;;;10408042;28;20052;-46
2023/09/03 10:48:19;;;;;;;5.55;4.45;;;;;;;;;;10407875;28;20033;-46
2023/09/03 10:53:35;;;;;;;6.80;4.57;;;;;;;;;;10405536;28;20021;-47
2023/09/03 10:58:52;;;;;;;6.93;4.10;;;;;;;;;;10411227;28;20030;-49
2023/09/03 11:03:54;;;;;;;5.23;4.40;;;;;;;;;;10405581;28;20052;-46
2023/09/03 11:09:04;;;;;;;6.43;4.07;;;;;;;;;;10413753;28;20267;-46
2023/09/03 11:14:10;;;;;;;9.82;4.82;;;;;;;;;;10414511;28;20171;-47
2023/09/03 11:19:11;;;;;;;11.43;5.35;;;;;;;;;;10411871;28;20526;-47
2023/09/03 11:24:16;;;;;;;6.50;4.53;;;;;;;;;;10414472;28;20079;-47
2023/09/03 11:29:25;;;;;;;8.32;4.15;;;;;;;;;;10412741;28;20056;-47
2023/09/03 11:34:29;;;;;;;8.15;4.45;;;;;;;;;;10406434;28;20040;-47
2023/09/03 11:39:30;;;;;;;7.43;4.80;;;;;;;;;;10414112;28;20052;-46
2023/09/03 11:44:31;;;;;;;6.57;4.22;;;;;;;;;;10413800;28;20599;-47
2023/09/03 11:49:32;;;;;;;4.97;4.15;;;;;;;;;;10414059;28;20038;-47
2023/09/03 11:54:32;;;;;;;4.55;4.13;;;;;;;;;;10411475;28;20029;-46
2023/09/03 11:59:33;;;;;;;5.32;4.28;;;;;;;;;;10413664;28;20025;-47
2023/09/03 12:04:34;;;;;;;7.03;4.45;;;;;;;;;;10396145;28;20031;-47
2023/09/03 12:09:37;;;;;;;7.57;4.60;;;;;;;;;;10411729;28;20067;-46
2023/09/03 12:14:38;;;;;;;6.78;4.43;;;;;;;;;;10405030;28;20132;-46
2023/09/03 12:19:42;;;;;;;5.32;4.22;;;;;;;;;;10408124;28;20052;-48
2023/09/03 12:24:46;;;;;;;5.28;4.18;;;;;;;;;;10409458;28;20053;-46
2023/09/03 12:29:57;;;;;;;6.82;4.28;;;;;;;;;;10408595;28;20078;-47
2023/09/03 12:34:58;;;;;;;4.75;4.07;;;;;;;;;;10405543;28;20095;-46
2023/09/03 12:39:58;;;;;;;4.90;4.10;;;;;;;;;;10405249;28;20036;-47
2023/09/03 12:44:59;;;;;;;5.32;4.15;;;;;;;;;;10396818;28;20140;-47
2023/09/03 12:49:59;;;;;;;4.80;4.32;;;;;;;;;;10406694;28;20087;-46
2023/09/03 12:55:00;;;;;;;7.53;4.40;;;;;;;;;;10404216;28;20025;-46
2023/09/03 13:00:04;;;;;;;4.85;4.15;;;;;;;;;;10388380;28;20092;-46
2023/09/03 13:05:05;;;;;;;4.88;4.07;;;;;;;;;;10384618;28;20115;-46
2023/09/03 13:10:06;;;;;;;8.60;3.90;;;;;;;;;;10384112;28;20092;-46
2023/09/03 13:15:07;;;;;;;8.48;4.32;;;;;;;;;;10378825;28;20534;-46
2023/09/03 13:20:09;;;;;;;7.47;5.07;;;;;;;;;;10380046;28;20162;-46
2023/09/03 13:25:09;;;;;;;5.70;4.10;;;;;;;;;;10380773;28;20044;-46
2023/09/03 13:30:10;;;;;;;5.93;3.83;;;;;;;;;;10385383;28;20036;-46
2023/09/03 13:35:11;;;;;;;5.88;3.90;;;;;;;;;;10380339;28;20032;-47
2023/09/03 13:40:12;;;;;;;6.95;4.35;;;;;;;;;;10379520;28;20509;-47
2023/09/03 13:45:12;;;;;;;9.65;4.55;;;;;;;;;;10381677;28;20457;-47
2023/09/03 13:50:13;;;;;;;8.43;4.18;;;;;;;;;;10379493;28;20473;-47
2023/09/03 13:55:14;;;;;;;4.85;3.97;;;;;;;;;;10382209;28;20507;-47
2023/09/03 14:00:16;;;;;;;8.07;4.40;;;;;;;;;;10405735;28;20087;-47
2023/09/03 14:05:18;;;;;;;10.68;4.15;;;;;;;;;;10404541;28;20026;-47
2023/09/03 14:10:19;;;;;;;6.82;3.90;;;;;;;;;;10403481;28;20030;-47
2023/09/03 14:15:19;;;;;;;7.88;3.83;;;;;;;;;;10406791;28;20033;-47
2023/09/03 14:20:20;;;;;;;6.40;4.15;;;;;;;;;;10406005;28;20388;-47
2023/09/03 14:25:20;;;;;;;8.23;3.90;;;;;;;;;;10395470;28;20480;-48
2023/09/03 14:30:21;;;;;;;6.38;4.20;;;;;;;;;;10410534;28;20527;-48
2023/09/03 14:35:21;;;;;;;7.82;3.60;;;;;;;;;;10416411;28;20377;-47
2023/09/03 14:40:22;;;;;;;5.15;3.42;;;;;;;;;;10416338;28;20480;-47
2023/09/03 14:45:23;;;;;;;9.07;3.95;;;;;;;;;;10416114;28;20408;-46
2023/09/03 14:50:23;;;;;;;6.40;4.03;;;;;;;;;;10416162;28;20042;-48
2023/09/03 14:55:24;;;;;;;4.88;3.67;;;;;;;;;;10415837;28;20030;-48
2023/09/03 15:00:25;;;;;;;10.82;4.00;;;;;;;;;;10415668;28;20021;-47
2023/09/03 15:05:28;;;;;;;5.78;4.10;;;;;;;;;;10414274;28;20112;-48
2023/09/03 15:10:30;;;;;;;7.80;3.75;;;;;;;;;;10410867;28;20045;-47
2023/09/03 15:15:30;;;;;;;5.35;3.67;;;;;;;;;;10412505;28;20040;-48
2023/09/03 15:20:31;;;;;;;4.20;3.80;;;;;;;;;;10414847;28;20030;-47
2023/09/03 15:25:31;;;;;;;6.75;3.42;;;;;;;;;;10414475;28;20021;-48
2023/09/03 15:30:33;;;;;;;4.57;3.83;;;;;;;;;;10414412;28;20462;-47
2023/09/03 15:35:38;;;;;;;3.90;3.50;;;;;;;;;;10414220;28;20025;-47
2023/09/03 15:40:40;;;;;;;5.03;3.63;;;;;;;;;;10413272;28;20021;-47
2023/09/03 15:45:40;;;;;;;8.60;4.18;;;;;;;;;;10413438;28;20049;-47
2023/09/03 15:50:42;;;;;;;5.15;3.72;;;;;;;;;;10413625;28;20511;-47
2023/09/03 15:55:42;;;;;;;6.50;3.50;;;;;;;;;;10413399;28;20075;-47
2023/09/03 16:00:45;;;;;;;6.47;3.75;;;;;;;;;;10413273;28;20103;-48
2023/09/03 16:05:45;;;;;;;6.53;3.63;;;;;;;;;;10413324;28;20033;-48
2023/09/03 16:10:49;;;;;;;5.82;4.10;;;;;;;;;;10412910;28;20045;-47
2023/09/03 16:15:50;;;;;;;4.55;3.50;;;;;;;;;;10412850;28;20037;-47
2023/09/03 16:20:52;;;;;;;7.28;3.78;;;;;;;;;;10412766;28;20033;-47
2023/09/03 16:25:53;;;;;;;4.60;3.50;;;;;;;;;;10412124;28;20037;-47
2023/09/03 16:30:58;;;;;;;4.25;3.80;;;;;;;;;;10412754;28;20030;-48
2023/09/03 16:36:00;;;;;;;4.20;3.60;;;;;;;;;;10411893;28;20029;-47
2023/09/03 16:41:01;;;;;;;4.45;3.47;;;;;;;;;;10411710;28;20025;-47
2023/09/03 16:46:01;;;;;;;5.85;3.80;;;;;;;;;;10411359;28;20045;-47
2023/09/03 16:51:02;;;;;;;3.97;3.58;;;;;;;;;;10411484;28;20029;-47
2023/09/03 16:56:03;;;;;;;3.47;3.10;;;;;;;;;;10410996;28;20029;-47
2023/09/03 17:01:03;;;;;;;3.72;3.33;;;;;;;;;;10410943;28;20604;-47
2023/09/03 17:06:04;;;;;;;3.70;3.22;;;;;;;;;;10410773;28;20033;-48
2023/09/03 17:11:04;;;;;;;3.88;3.33;;;;;;;;;;10410437;28;20021;-47
2023/09/03 17:16:05;;;;;;;4.03;3.28;;;;;;;;;;10410384;28;20036;-47
2023/09/03 17:21:06;;;;;;;3.88;3.50;;;;;;;;;;10405903;28;20029;-48
2023/09/03 17:26:06;;;;;;;5.22;3.30;;;;;;;;;;10400357;28;20374;-47
2023/09/03 17:31:07;;;;;;;4.45;3.50;;;;;;;;;;10401583;28;20492;-48
2023/09/03 17:36:07;;;;;;;5.60;3.53;;;;;;;;;;10399041;28;20095;-46
2023/09/03 17:41:08;;;;;;;4.15;3.60;;;;;;;;;;10407571;28;20380;-46
2023/09/03 17:46:09;;;;;;;8.73;4.22;;;;;;;;;;10409965;28;20457;-46
2023/09/03 17:51:10;;;;;;;8.68;4.18;;;;;;;;;;10400451;28;20022;-47
2023/09/03 17:56:11;;;;;;;7.25;4.68;;;;;;;;;;10409504;28;20372;-47
2023/09/03 18:01:11;;;;;;;9.40;4.93;;;;;;;;;;10407472;28;20029;-48
2023/09/03 18:06:13;;;;;;;7.45;4.80;;;;;;;;;;10408264;28;20095;-47
2023/09/03 18:11:15;;;;;;;7.40;4.57;;;;;;;;;;10409192;28;20109;-52
2023/09/03 18:16:16;;;;;;;9.75;5.00;;;;;;;;;;10399376;28;20030;-48
2023/09/03 18:21:17;;;;;;;7.05;4.30;;;;;;;;;;10406969;28;20029;-47
2023/09/03 18:26:18;;;;;;;7.82;4.53;;;;;;;;;;10406937;28;20034;-47
2023/09/03 18:31:20;;;;;;;6.05;4.53;;;;;;;;;;10401125;28;20366;-47
2023/09/03 18:36:21;;;;;;;11.85;4.60;;;;;;;;;;10393938;28;20025;-48
2023/09/03 18:41:21;;;;;;;6.30;4.53;;;;;;;;;;10391967;28;20030;-48
2023/09/03 18:46:22;;;;;;;7.40;4.15;;;;;;;;;;10392638;28;20658;-48
2023/09/03 18:51:23;;;;;;;8.63;4.50;;;;;;;;;;10395122;28;20026;-48
2023/09/03 18:56:23;;;;;;;8.07;4.43;;;;;;;;;;10389717;28;20373;-49
2023/09/03 19:01:26;;;;;;;9.88;4.28;;;;;;;;;;10394423;28;20052;-48
2023/09/03 19:06:26;;;;;;;6.28;4.15;;;;;;;;;;10386770;28;20041;-48
2023/09/03 19:11:30;;;;;;;8.27;4.72;;;;;;;;;;10398198;28;20481;-49
2023/09/03 19:16:32;;;;;;;8.25;4.72;;;;;;;;;;10396910;28;20512;-49
2023/09/03 19:21:33;;;;;;;4.20;3.80;;;;;;;;;;10401361;28;20374;-48
2023/09/03 19:26:34;;;;;;;6.55;4.30;;;;;;;;;;10390207;28;20092;-48
2023/09/03 19:31:34;;;;;;;6.22;4.35;;;;;;;;;;10406179;28;20415;-48
2023/09/03 19:36:35;;;;;;;5.63;4.07;;;;;;;;;;10399649;28;20021;-48
2023/09/03 19:41:35;;;;;;;6.00;4.40;;;;;;;;;;10401403;28;20030;-48
2023/09/03 19:46:36;;;;;;;13.20;3.90;;;;;;;;;;10398894;28;20041;-53
2023/09/03 19:51:37;;;;;;;10.77;4.75;;;;;;;;;;10396057;28;20030;-56
2023/09/03 19:56:37;;;;;;;8.85;4.55;;;;;;;;;;10390493;28;20041;-48
2023/09/03 20:01:38;;;;;;;10.27;3.90;;;;;;;;;;10409932;28;20537;-48
2023/09/03 20:06:38;;;;;;;14.48;4.72;;;;;;;;;;10408363;28;20087;-48
2023/09/03 20:11:39;;;;;;;8.85;4.55;;;;;;;;;;10410512;28;20067;-53
2023/09/03 20:16:40;;;;;;;10.68;3.88;;;;;;;;;;10408395;28;20388;-49
2023/09/03 20:21:40;;;;;;;5.88;3.10;;;;;;;;;;10407991;28;20048;-48
2023/09/03 20:26:41;;;;;;;3.42;3.10;;;;;;;;;;10407431;28;20054;-48
2023/09/03 20:31:43;;;;;;;6.70;2.83;;;;;;;;;;10390269;28;20465;-48
2023/09/03 20:36:44;;;;;;;3.92;2.65;;;;;;;;;;10406237;28;20033;-48
2023/09/03 20:41:45;;;;;;;4.05;3.13;;;;;;;;;;10407471;28;20499;-49
2023/09/03 20:46:45;;;;;;;5.57;2.90;;;;;;;;;;10409123;28;20493;-53
2023/09/03 20:51:46;;;;;;;4.45;3.20;;;;;;;;;;10407057;28;20026;-49
2023/09/03 20:56:46;;;;;;;4.32;3.10;;;;;;;;;;10407370;28;20079;-49
2023/09/03 21:01:50;;;;;;;4.25;2.95;;;;;;;;;;10406049;28;20038;-48
2023/09/03 21:06:51;;;;;;;5.38;2.80;;;;;;;;;;10407661;28;20520;-50
2023/09/03 21:11:51;;;;;;;5.22;2.78;;;;;;;;;;10405101;28;20030;-49
2023/09/03 21:16:52;;;;;;;3.80;2.78;;;;;;;;;;10405648;28;20033;-49
2023/09/03 21:21:53;;;;;;;3.83;3.22;;;;;;;;;;10405910;28;20040;-52
2023/09/03 21:26:53;;;;;;;6.32;3.40;;;;;;;;;;10407651;28;20029;-49
2023/09/03 21:31:54;;;;;;;5.20;2.97;;;;;;;;;;10396197;28;20018;-55
2023/09/03 21:36:54;;;;;;;7.68;3.35;;;;;;;;;;10396115;28;20033;-49
2023/09/03 21:41:55;;;;;;;8.18;3.15;;;;;;;;;;10399086;28;20040;-48
2023/09/03 21:46:55;;;;;;;8.52;3.10;;;;;;;;;;10400698;28;20049;-49
2023/09/03 21:51:56;;;;;;;3.97;2.90;;;;;;;;;;10402668;28;20502;-48
2023/09/03 21:56:58;;;;;;;6.15;2.90;;;;;;;;;;10405207;28;20381;-49
2023/09/03 22:01:59;;;;;;;3.65;3.05;;;;;;;;;;10404518;28;20041;-48
2023/09/03 22:06:59;;;;;;;6.93;3.17;;;;;;;;;;10400256;28;20048;-49
2023/09/03 22:12:00;;;;;;;4.30;2.90;;;;;;;;;;10404623;28;20032;-49
2023/09/03 22:17:00;;;;;;;3.15;2.53;;;;;;;;;;10404056;28;20034;-48
2023/09/03 22:22:01;;;;;;;5.45;2.95;;;;;;;;;;10404705;28;20025;-54
2023/09/03 22:27:02;;;;;;;4.97;3.10;;;;;;;;;;10404287;28;20041;-50
2023/09/03 22:32:03;;;;;;;6.00;3.05;;;;;;;;;;10405949;28;20026;-49
2023/09/03 22:37:04;;;;;;;4.63;2.70;;;;;;;;;;10404345;28;20091;-49
2023/09/03 22:42:05;;;;;;;4.60;2.95;;;;;;;;;;10403666;28;20087;-48
2023/09/03 22:47:06;;;;;;;6.38;2.67;;;;;;;;;;10404286;28;20103;-48
2023/09/03 22:52:07;;;;;;;2.88;2.65;;;;;;;;;;10407947;28;20519;-50
2023/09/03 22:57:07;;;;;;;3.15;2.83;;;;;;;;;;10405322;28;20046;-48
2023/09/03 23:02:08;;;;;;;3.05;2.42;;;;;;;;;;10397107;28;20088;-56
2023/09/03 23:07:08;;;;;;;7.80;2.90;;;;;;;;;;10409752;28;20424;-56
2023/09/03 23:12:09;;;;;;;4.55;2.92;;;;;;;;;;10411585;28;20075;-47
2023/09/03 23:17:13;;;;;;;8.05;3.10;;;;;;;;;;10411602;28;20038;-47
2023/09/03 23:22:14;;;;;;;6.65;2.85;;;;;;;;;;10411391;28;20021;-47
2023/09/03 23:27:14;;;;;;;4.35;2.90;;;;;;;;;;10423226;28;20484;-49
2023/09/03 23:32:15;;;;;;;3.60;2.85;;;;;;;;;;10415402;28;20022;-47
2023/09/03 23:37:16;;;;;;;4.75;2.80;;;;;;;;;;10411242;28;20029;-47
2023/09/03 23:42:16;;;;;;;7.03;3.38;;;;;;;;;;10410592;28;20034;-48
2023/09/03 23:47:18;;;;;;;3.55;2.60;;;;;;;;;;10409698;28;20121;-47
2023/09/03 23:52:18;;;;;;;3.03;2.72;;;;;;;;;;10408949;28;20064;-49
2023/09/03 23:57:19;;;;;;;3.42;2.78;;;;;;;;;;10402621;28;20116;-47
